LFLN/SYT METAR and TAF weather

Enter ICAO airport designator
Station Type Date Time Source
LFLN METAR 2021/03/08 16:00 UTC NOAA

LFLN 081600Z AUTO 36005KT CAVOK 10/00 Q1017 NOSIG


Station Type Date Time Source
LFLN Decoded METAR 2021/03/08 16:00 UTC NOAA

Saint-Yan, France (LFLN) 46-25N 004-01E 244M
Mar 08, 2021 - 11:00 AM EST / 2021.03.08 1600 UTC
Wind: from the N (360 degrees) at 6 MPH (5 KT):0
Visibility: greater than 7 mile(s):0
Temperature: 50 F (10 C)
Dew Point: 32 F (0 C)
Relative Humidity: 49%
Pressure (altimeter): 30.03 in. Hg (1017 hPa)
ob: LFLN 081600Z AUTO 36005KT CAVOK 10/00 Q1017 NOSIG
cycle: 16

Station Type Date Time Source
LFLN TAF UTC NOAA

Error!

Example: see airport list